Airport ID:KTSP
Update Time (UTC):18 AUG 18 04:58
Wind Speed (Knots):7
Wind Direction (Magnetic):270
Temperature (°C):23
Dew Point (°C):8
Humidity (%):37
Altimeter (inHg):30.23
Density Altitude (Feet):5500
Visibility (Miles):10
Clouds (Hundreds of feet):CLR
Present Weather:NO PRECIPITATION
METAR:METAR KTSP 180455Z AUTO 28008KT 10SM CLR 23/08 A3023 RMK AO2

The data displayed is for advisory purposes only and is not to be used for flight planning or operations.

This page is not automatically refreshed. Reload the page to see current data.